createdAt,value
2018-03-22T00:00:08.828Z,24.33
2018-03-22T00:02:37.212Z,25.73
2018-03-22T00:05:05.674Z,22.70
2018-03-22T00:07:33.397Z,28.50
2018-03-22T00:10:01.005Z,31.83
2018-03-22T00:12:28.647Z,29.83
2018-03-22T00:14:56.259Z,37.00
2018-03-22T00:17:24.674Z,28.93
2018-03-22T00:19:52.348Z,31.40
2018-03-22T00:22:31.987Z,26.13
2018-03-22T00:24:59.648Z,29.77
2018-03-22T00:27:27.316Z,25.20
2018-03-22T00:29:55.056Z,36.20
2018-03-22T00:32:22.651Z,30.37
2018-03-22T00:34:50.316Z,38.10
2018-03-22T00:37:17.943Z,30.60
2018-03-22T00:39:46.490Z,30.57
2018-03-22T00:42:14.147Z,34.20
2018-03-22T00:44:41.804Z,39.10
2018-03-22T00:47:09.461Z,35.43
2018-03-22T00:49:37.104Z,33.70
2018-03-22T00:52:05.627Z,24.53
2018-03-22T00:54:33.230Z,28.83
2018-03-22T00:57:00.924Z,36.93
2018-03-22T00:59:29.362Z,24.83
2018-03-22T01:01:57.422Z,29.90
2018-03-22T01:04:25.055Z,32.20
2018-03-22T01:06:53.427Z,25.20
2018-03-22T01:09:21.223Z,32.87
2018-03-22T01:11:48.836Z,27.20
2018-03-22T01:14:16.489Z,28.47
2018-03-22T01:16:44.256Z,28.80
2018-03-22T01:19:12.394Z,27.50
2018-03-22T01:21:40.805Z,25.33
2018-03-22T01:24:08.414Z,28.60
2018-03-22T01:26:36.133Z,28.40
2018-03-22T01:29:03.918Z,26.73
2018-03-22T01:31:31.688Z,23.47
2018-03-22T01:33:59.333Z,29.00
2018-03-22T01:36:26.961Z,25.10
2018-03-22T01:38:54.613Z,25.53
2018-03-22T01:41:22.234Z,22.33
2018-03-22T01:43:49.874Z,33.90
2018-03-22T01:46:23.449Z,32.57
2018-03-22T01:48:51.136Z,30.40
2018-03-22T01:51:19.659Z,32.03
2018-03-22T01:53:47.291Z,35.30
2018-03-22T01:56:15.706Z,32.33
2018-03-22T01:58:43.375Z,30.80
2018-03-22T02:01:11.030Z,28.83
2018-03-22T02:03:39.412Z,28.00
2018-03-22T02:06:07.228Z,34.50
2018-03-22T02:08:34.868Z,26.17
2018-03-22T02:11:02.528Z,24.20
2018-03-22T02:13:30.217Z,25.10
2018-03-22T02:15:58.006Z,26.50
2018-03-22T02:18:25.734Z,23.40
2018-03-22T02:20:53.402Z,25.63
2018-03-22T02:23:21.206Z,25.23
2018-03-22T02:25:48.886Z,28.10
2018-03-22T02:28:17.225Z,28.83
2018-03-22T02:30:44.843Z,25.37
2018-03-22T02:33:12.478Z,32.20
2018-03-22T02:35:40.212Z,34.50
2018-03-22T02:38:07.858Z,29.50
2018-03-22T02:40:36.254Z,33.80
2018-03-22T02:43:03.913Z,36.10
2018-03-22T02:45:32.425Z,29.13
2018-03-22T02:48:00.088Z,28.17
2018-03-22T02:50:27.784Z,33.23
2018-03-22T02:52:55.456Z,30.60
2018-03-22T02:55:23.192Z,30.10
2018-03-22T02:57:50.935Z,31.60
2018-03-22T03:00:19.419Z,31.13
2018-03-22T03:02:47.936Z,33.93
2018-03-22T03:05:15.549Z,31.20
2018-03-22T03:07:43.538Z,33.73
2018-03-22T03:10:11.344Z,33.20
2018-03-22T03:12:39.009Z,28.07
2018-03-22T03:15:06.677Z,29.90
2018-03-22T03:17:34.311Z,34.43
2018-03-22T03:20:02.857Z,29.50
2018-03-22T03:22:30.469Z,26.80
2018-03-22T03:24:58.100Z,26.93
2018-03-22T03:27:25.738Z,29.73
2018-03-22T03:29:53.352Z,24.23
2018-03-22T03:32:21.758Z,28.37
2018-03-22T03:34:49.473Z,29.73
2018-03-22T03:37:17.124Z,25.57
2018-03-22T03:39:44.781Z,30.70
2018-03-22T03:42:12.784Z,31.93
2018-03-22T03:44:40.400Z,28.47
2018-03-22T03:47:08.061Z,28.10
2018-03-22T03:49:36.454Z,20.60
2018-03-22T03:52:04.064Z,25.53
2018-03-22T03:54:32.033Z,29.17
2018-03-22T03:56:59.770Z,24.80
2018-03-22T03:59:27.416Z,30.57
2018-03-22T04:01:55.827Z,24.37
2018-03-22T04:04:23.436Z,30.03
2018-03-22T04:06:52.573Z,29.17
2018-03-22T04:09:20.978Z,35.93
2018-03-22T04:11:48.645Z,30.80
2018-03-22T04:14:16.384Z,30.93
2018-03-22T04:16:44.804Z,29.57
2018-03-22T04:19:12.427Z,29.60
2018-03-22T04:21:40.912Z,39.83
2018-03-22T04:24:09.335Z,33.13
2018-03-22T04:26:37.041Z,37.70
2018-03-22T04:29:04.705Z,37.50
2018-03-22T04:31:32.325Z,35.53
2018-03-22T04:34:00.047Z,33.07
2018-03-22T04:36:27.701Z,28.27
2018-03-22T04:38:55.341Z,28.43
2018-03-22T04:41:23.011Z,30.67
2018-03-22T04:43:50.644Z,33.77
2018-03-22T04:46:19.365Z,25.63
2018-03-22T04:48:46.983Z,27.83
2018-03-22T04:51:15.408Z,32.07
2018-03-22T04:53:43.157Z,36.60
2018-03-22T04:56:11.588Z,30.60
2018-03-22T04:58:39.723Z,35.60
2018-03-22T05:01:07.376Z,37.33
2018-03-22T05:03:35.839Z,42.53
2018-03-22T05:06:03.564Z,39.77
2018-03-22T05:08:31.164Z,31.60
2018-03-22T05:10:58.796Z,31.93
2018-03-22T05:13:26.433Z,28.90
2018-03-22T05:15:54.108Z,28.13
2018-03-22T05:18:21.742Z,34.20
2018-03-22T05:20:49.562Z,36.57
2018-03-22T05:23:17.239Z,29.50
2018-03-22T05:25:44.892Z,33.07
2018-03-22T05:28:13.511Z,44.20
2018-03-22T05:30:41.121Z,41.47
2018-03-22T05:33:09.552Z,42.70
2018-03-22T05:35:37.220Z,45.70
2018-03-22T05:38:04.965Z,43.60
2018-03-22T05:40:32.692Z,32.13
2018-03-22T05:43:00.404Z,29.03
2018-03-22T05:45:28.034Z,30.90
2018-03-22T05:47:56.442Z,35.20
2018-03-22T05:50:24.102Z,30.40
2018-03-22T05:52:52.557Z,32.40
2018-03-22T05:55:24.945Z,32.47
2018-03-22T05:57:53.373Z,38.93
2018-03-22T06:00:21.031Z,28.70
2018-03-22T06:02:48.657Z,32.67
2018-03-22T06:05:17.085Z,31.50
2018-03-22T06:07:44.749Z,42.33
2018-03-22T06:10:12.469Z,50.13
2018-03-22T06:12:40.284Z,40.07
2018-03-22T06:15:07.889Z,46.00
2018-03-22T06:17:35.688Z,39.43
2018-03-22T06:20:04.177Z,41.20
2018-03-22T06:22:33.438Z,40.80
2018-03-22T06:25:01.862Z,43.93
2018-03-22T06:27:30.251Z,40.93
2018-03-22T06:29:58.663Z,31.27
2018-03-22T06:32:26.297Z,35.30
2018-03-22T06:34:54.793Z,39.40
2018-03-22T06:37:22.487Z,34.20
2018-03-22T06:39:50.250Z,33.60
2018-03-22T06:42:17.895Z,35.37
2018-03-22T06:44:46.386Z,29.93
2018-03-22T06:47:14.894Z,52.93
2018-03-22T06:49:42.562Z,35.07
2018-03-22T06:52:10.391Z,34.10
2018-03-22T06:54:38.808Z,37.43
2018-03-22T06:57:06.819Z,36.50
2018-03-22T06:59:34.440Z,37.47
2018-03-22T07:02:02.058Z,33.47
2018-03-22T07:04:29.702Z,37.23
2018-03-22T07:06:57.356Z,37.83
2018-03-22T07:09:25.003Z,36.40
2018-03-22T07:11:52.800Z,38.23
2018-03-22T07:14:20.434Z,38.17
2018-03-22T07:16:48.810Z,42.27
2018-03-22T07:19:17.470Z,40.80
2018-03-22T07:21:45.066Z,47.77
2018-03-22T07:24:13.453Z,49.30
2018-03-22T07:26:41.864Z,41.90
2018-03-22T07:29:09.473Z,39.13
2018-03-22T07:31:38.602Z,56.60
2018-03-22T07:34:06.992Z,43.13
2018-03-22T07:36:34.786Z,44.20
2018-03-22T07:39:02.406Z,36.80
2018-03-22T07:41:30.787Z,40.30
2018-03-22T07:44:13.449Z,41.00
2018-03-22T07:46:41.065Z,32.57
2018-03-22T07:49:09.496Z,42.43
2018-03-22T07:51:37.097Z,40.10
2018-03-22T07:54:05.155Z,35.60
2018-03-22T07:56:32.788Z,32.20
2018-03-22T07:59:00.392Z,49.73
2018-03-22T08:01:28.226Z,39.47
2018-03-22T08:03:55.853Z,49.80
2018-03-22T08:06:24.283Z,48.30
2018-03-22T08:08:51.909Z,30.57
2018-03-22T08:11:20.347Z,25.37
2018-03-22T08:13:48.035Z,40.17
2018-03-22T08:16:15.763Z,21.83
2018-03-22T08:18:43.405Z,24.07
2018-03-22T08:21:12.102Z,22.57
2018-03-22T08:23:39.748Z,23.70
2018-03-22T08:26:07.362Z,23.23
2018-03-22T08:28:35.088Z,26.87
2018-03-22T08:31:02.708Z,26.53
2018-03-22T08:33:30.360Z,32.33
2018-03-22T08:35:58.025Z,36.00
2018-03-22T08:38:25.634Z,23.77
2018-03-22T08:40:53.359Z,31.23
2018-03-22T08:43:20.982Z,39.03
2018-03-22T08:45:48.637Z,27.57
2018-03-22T08:48:16.308Z,25.30
2018-03-22T08:50:43.924Z,28.13
2018-03-22T08:53:11.688Z,31.10
2018-03-22T08:55:39.318Z,25.00
2018-03-22T08:58:06.976Z,29.53
2018-03-22T09:00:34.591Z,30.00
2018-03-22T09:03:02.950Z,27.17
2018-03-22T09:05:31.352Z,27.63
2018-03-22T09:07:59.129Z,25.50
2018-03-22T09:10:26.800Z,29.63
2018-03-22T09:12:54.765Z,24.43
2018-03-22T09:15:22.371Z,30.00
2018-03-22T09:17:50.066Z,24.60
2018-03-22T09:20:18.485Z,22.20
2018-03-22T09:22:52.037Z,21.00
2018-03-22T09:25:20.468Z,24.67
2018-03-22T09:27:48.089Z,20.77
2018-03-22T09:30:15.695Z,18.67
2018-03-22T09:32:43.327Z,26.70
2018-03-22T09:35:11.722Z,18.27
2018-03-22T09:37:40.111Z,23.33
2018-03-22T09:40:07.897Z,23.33
2018-03-22T09:42:35.979Z,16.20
2018-03-22T09:45:04.146Z,17.83
2018-03-22T09:47:31.771Z,18.40
2018-03-22T09:49:59.489Z,18.07
2018-03-22T09:52:27.060Z,17.80
2018-03-22T09:54:54.811Z,22.87
2018-03-22T09:57:22.519Z,21.80
2018-03-22T09:59:50.252Z,18.67
2018-03-22T10:02:18.085Z,17.07
2018-03-22T10:04:46.155Z,17.90
2018-03-22T10:07:14.594Z,15.80
2018-03-22T10:09:42.209Z,17.47
2018-03-22T10:12:09.832Z,25.50
2018-03-22T10:14:37.491Z,18.13
2018-03-22T10:17:05.128Z,15.73
2018-03-22T10:19:33.545Z,14.43
2018-03-22T10:22:01.537Z,18.83
2018-03-22T10:24:29.152Z,17.50
2018-03-22T10:26:57.528Z,13.87
2018-03-22T10:29:26.048Z,13.93
2018-03-22T10:31:53.703Z,16.90
2018-03-22T10:34:21.325Z,15.47
2018-03-22T10:36:48.926Z,16.47
2018-03-22T10:39:17.660Z,23.10
2018-03-22T10:41:45.278Z,16.00
2018-03-22T10:44:13.659Z,16.90
2018-03-22T10:46:42.076Z,14.17
2018-03-22T10:49:09.829Z,14.73
2018-03-22T10:51:37.598Z,14.47
2018-03-22T10:54:05.197Z,15.77
2018-03-22T10:56:32.953Z,15.03
2018-03-22T10:59:00.576Z,15.10
2018-03-22T11:01:34.630Z,15.70
2018-03-22T11:04:08.125Z,13.60
2018-03-22T11:06:35.914Z,14.33
2018-03-22T11:09:03.562Z,14.90
2018-03-22T11:11:31.207Z,15.87
2018-03-22T11:13:59.629Z,14.63
2018-03-22T11:16:27.247Z,15.40
2018-03-22T11:18:55.629Z,13.37
2018-03-22T11:21:24.042Z,13.90
2018-03-22T11:23:51.705Z,15.27
2018-03-22T11:26:19.338Z,14.93
2018-03-22T11:28:47.749Z,18.20
2018-03-22T11:31:15.372Z,14.13
2018-03-22T11:33:42.986Z,13.33
2018-03-22T11:36:10.623Z,10.80
2018-03-22T11:38:39.014Z,17.20
2018-03-22T11:41:07.412Z,17.20
2018-03-22T11:43:35.019Z,12.57
2018-03-22T11:46:02.647Z,12.00
2018-03-22T11:48:30.295Z,12.43
2018-03-22T11:50:57.920Z,12.23
2018-03-22T11:53:25.660Z,12.80
2018-03-22T11:55:53.328Z,31.13
2018-03-22T11:58:21.742Z,13.40
2018-03-22T12:00:49.432Z,13.40
2018-03-22T12:03:17.079Z,10.97
2018-03-22T12:05:44.730Z,14.77
2018-03-22T12:08:12.337Z,10.33
2018-03-22T12:10:39.985Z,12.20
2018-03-22T12:13:07.706Z,12.20
2018-03-22T12:15:35.378Z,13.43
2018-03-22T12:18:03.584Z,12.23
2018-03-22T12:20:31.266Z,13.00
2018-03-22T12:22:59.090Z,14.10
2018-03-22T12:25:26.829Z,10.80
2018-03-22T12:27:55.478Z,10.53
2018-03-22T12:30:25.838Z,10.40
2018-03-22T12:32:53.548Z,11.80
2018-03-22T12:35:21.231Z,9.97
2018-03-22T12:37:48.841Z,13.50
2018-03-22T12:40:17.247Z,26.83
2018-03-22T12:42:45.656Z,13.37
2018-03-22T12:45:13.284Z,8.70
2018-03-22T12:47:41.697Z,14.77
2018-03-22T12:50:09.330Z,7.20
2018-03-22T12:52:37.748Z,9.40
2018-03-22T12:55:05.371Z,10.83
2018-03-22T12:57:33.013Z,7.80
2018-03-22T13:00:00.655Z,9.10
2018-03-22T13:02:28.264Z,6.97
2018-03-22T13:04:55.868Z,8.17
2018-03-22T13:07:23.459Z,8.60
2018-03-22T13:09:51.084Z,6.80
2018-03-22T13:12:19.543Z,10.53
2018-03-22T13:14:47.189Z,6.57
2018-03-22T13:17:14.843Z,8.40
2018-03-22T13:19:42.936Z,9.63
2018-03-22T13:22:10.688Z,9.77
2018-03-22T13:24:38.318Z,8.00
2018-03-22T13:27:06.741Z,7.60
2018-03-22T13:29:34.373Z,11.93
2018-03-22T13:32:02.027Z,7.43
2018-03-22T13:34:29.748Z,6.83
2018-03-22T13:36:57.593Z,8.53
2018-03-22T13:39:25.322Z,9.70
2018-03-22T13:41:53.747Z,9.40
2018-03-22T13:44:21.377Z,7.93
2018-03-22T13:46:49.784Z,8.20
2018-03-22T13:49:18.194Z,8.40
2018-03-22T13:51:45.978Z,8.70
2018-03-22T13:54:15.155Z,7.03
2018-03-22T13:56:42.981Z,7.90
2018-03-22T13:59:10.592Z,9.40
2018-03-22T14:01:38.989Z,9.60
2018-03-22T14:04:06.621Z,12.43
2018-03-22T14:06:34.302Z,11.10
2018-03-22T14:09:01.933Z,9.33
2018-03-22T14:11:30.356Z,11.40
2018-03-22T14:13:58.038Z,10.20
2018-03-22T14:16:25.649Z,12.97
2018-03-22T14:18:54.793Z,9.10
2018-03-22T14:21:22.414Z,9.30
2018-03-22T14:23:50.899Z,10.50
2018-03-22T14:26:19.428Z,10.10
2018-03-22T14:28:47.043Z,13.67
2018-03-22T14:31:14.659Z,9.13
2018-03-22T14:33:42.262Z,17.17
2018-03-22T14:36:09.901Z,8.63
2018-03-22T14:38:37.519Z,9.67
2018-03-22T14:41:05.957Z,9.17
2018-03-22T14:43:33.602Z,34.00
2018-03-22T14:46:01.237Z,12.53
2018-03-22T14:48:29.652Z,7.40
2018-03-22T14:50:57.270Z,15.07
2018-03-22T14:53:24.958Z,7.83
2018-03-22T14:56:00.570Z,21.90
2018-03-22T14:58:28.456Z,9.63
2018-03-22T15:00:56.188Z,10.20
2018-03-22T15:03:23.796Z,5.70
2018-03-22T15:05:51.438Z,8.93
2018-03-22T15:08:19.191Z,6.40
2018-03-22T15:10:47.038Z,9.23
2018-03-22T15:13:14.715Z,34.03
2018-03-22T15:15:42.355Z,15.77
2018-03-22T15:18:10.762Z,7.77
2018-03-22T15:20:38.394Z,10.90
2018-03-22T15:23:06.787Z,10.63
2018-03-22T15:25:35.295Z,11.60
2018-03-22T15:28:02.969Z,7.60
2018-03-22T15:30:30.632Z,7.63
2018-03-22T15:32:58.256Z,9.33
2018-03-22T15:35:26.689Z,9.37
2018-03-22T15:37:54.351Z,11.43
2018-03-22T15:40:21.974Z,14.93
2018-03-22T15:42:50.417Z,10.90
2018-03-22T15:45:18.045Z,8.37
2018-03-22T15:47:46.499Z,7.00
2018-03-22T15:50:14.949Z,9.57
2018-03-22T15:52:42.601Z,11.93
2018-03-22T15:55:10.451Z,8.40
2018-03-22T15:57:38.821Z,8.60
2018-03-22T16:00:07.272Z,10.20
2018-03-22T16:02:34.865Z,17.77
2018-03-22T16:05:02.642Z,11.47
2018-03-22T16:07:30.255Z,10.93
2018-03-22T16:09:57.863Z,7.30
2018-03-22T16:12:26.395Z,14.40
2018-03-22T16:14:54.028Z,14.03
2018-03-22T16:17:21.664Z,8.20
2018-03-22T16:19:49.267Z,14.07
2018-03-22T16:22:17.657Z,14.40
2018-03-22T16:24:46.055Z,6.67
2018-03-22T16:27:13.818Z,11.90
2018-03-22T16:29:41.475Z,10.40
2018-03-22T16:32:09.994Z,19.53
2018-03-22T16:34:37.656Z,9.37
2018-03-22T16:37:05.414Z,8.20
2018-03-22T16:39:33.073Z,14.07
2018-03-22T16:42:00.727Z,14.83
2018-03-22T16:44:29.137Z,8.63
2018-03-22T16:46:56.917Z,11.23
2018-03-22T16:49:24.567Z,8.80
2018-03-22T16:51:52.230Z,8.40
2018-03-22T16:54:19.912Z,10.07
2018-03-22T16:56:47.582Z,8.87
2018-03-22T16:59:15.258Z,14.50
2018-03-22T17:01:42.935Z,10.70
2018-03-22T17:04:10.690Z,9.80
2018-03-22T17:06:38.351Z,9.23
2018-03-22T17:09:06.058Z,8.37
2018-03-22T17:11:33.737Z,10.97
2018-03-22T17:14:02.232Z,8.83
2018-03-22T17:16:30.644Z,13.33
2018-03-22T17:18:58.337Z,10.90
2018-03-22T17:21:26.761Z,57.10
2018-03-22T17:23:55.276Z,17.80
2018-03-22T17:26:22.957Z,27.70
2018-03-22T17:28:50.598Z,14.80
2018-03-22T17:31:19.065Z,19.80
2018-03-22T17:33:46.715Z,16.60
2018-03-22T17:36:14.401Z,14.27
2018-03-22T17:38:42.881Z,15.77
2018-03-22T17:41:11.268Z,22.20
2018-03-22T17:43:39.713Z,7.77
2018-03-22T17:46:07.359Z,10.90
2018-03-22T17:48:37.606Z,11.17
2018-03-22T17:51:05.280Z,9.33
2018-03-22T17:53:32.922Z,10.53
2018-03-22T17:56:00.631Z,15.93
2018-03-22T17:58:28.277Z,11.93
2018-03-22T18:00:55.985Z,11.00
2018-03-22T18:03:24.390Z,12.27
2018-03-22T18:05:52.257Z,9.63
2018-03-22T18:08:21.276Z,9.43
2018-03-22T18:10:48.966Z,11.63
2018-03-22T18:13:16.651Z,12.50
2018-03-22T18:15:44.305Z,12.90
2018-03-22T18:18:12.061Z,10.80
2018-03-22T18:20:39.754Z,13.40
2018-03-22T18:23:07.427Z,10.70
2018-03-22T18:25:35.185Z,10.07
2018-03-22T18:28:02.855Z,10.60
2018-03-22T18:30:30.580Z,11.13
2018-03-22T18:32:58.277Z,11.00
2018-03-22T18:35:26.038Z,14.00
2018-03-22T18:37:53.673Z,11.70
2018-03-22T18:40:21.673Z,14.43
2018-03-22T18:42:49.536Z,13.17
2018-03-22T18:45:18.204Z,13.10
2018-03-22T18:47:45.999Z,16.10
2018-03-22T18:50:13.683Z,12.83
2018-03-22T18:52:41.427Z,12.00
2018-03-22T18:55:09.136Z,15.47
2018-03-22T18:57:36.842Z,14.97
2018-03-22T19:00:05.914Z,14.37
2018-03-22T19:02:33.625Z,15.00
2018-03-22T19:05:01.611Z,15.43
2018-03-22T19:07:29.585Z,13.27
2018-03-22T19:09:57.492Z,14.10
2018-03-22T19:12:26.780Z,12.40
2018-03-22T19:14:54.476Z,14.67
2018-03-22T19:17:23.019Z,13.73
2018-03-22T19:19:50.707Z,17.50
2018-03-22T19:22:18.446Z,8.17
2018-03-22T19:24:47.861Z,13.00
2018-03-22T19:27:15.725Z,15.63
2018-03-22T19:29:43.893Z,10.60
2018-03-22T19:32:11.799Z,16.33
2018-03-22T19:34:39.752Z,10.50
2018-03-22T19:37:07.689Z,11.87
2018-03-22T19:39:36.415Z,12.50
2018-03-22T19:42:04.933Z,11.07
2018-03-22T19:44:32.932Z,15.67
2018-03-22T19:47:00.792Z,11.43
2018-03-22T19:49:28.616Z,10.80
2018-03-22T19:51:56.561Z,26.30
2018-03-22T19:54:25.280Z,17.13
2018-03-22T19:56:53.149Z,44.13
2018-03-22T19:59:20.879Z,21.53
2018-03-22T20:01:49.435Z,40.77
2018-03-22T20:04:17.125Z,41.00
2018-03-22T20:06:45.564Z,25.17
2018-03-22T20:09:13.283Z,48.03
2018-03-22T20:11:41.979Z,25.00
2018-03-22T20:14:10.507Z,11.47
2018-03-22T20:16:38.261Z,32.37
2018-03-22T20:19:06.047Z,22.30
2018-03-22T20:21:33.816Z,16.00
2018-03-22T20:24:01.603Z,8.40
2018-03-22T20:26:29.415Z,13.47
2018-03-22T20:28:57.132Z,6.13
2018-03-22T20:31:24.852Z,7.03
2018-03-22T20:33:53.389Z,15.00
2018-03-22T20:36:21.922Z,8.43
2018-03-22T20:38:50.385Z,11.70
2018-03-22T20:41:18.219Z,11.73
2018-03-22T20:43:45.986Z,17.30
2018-03-22T20:46:13.757Z,26.17
2018-03-22T20:48:41.518Z,12.53
2018-03-22T20:51:09.236Z,20.43
2018-03-22T20:53:36.953Z,16.40
2018-03-22T20:56:05.362Z,20.97
2018-03-22T20:58:33.172Z,20.30
2018-03-22T21:01:00.886Z,18.10
2018-03-22T21:03:28.931Z,13.40
2018-03-22T21:05:56.791Z,10.07
2018-03-22T21:08:24.700Z,8.27
2018-03-22T21:10:52.411Z,9.70
2018-03-22T21:13:20.771Z,12.00
2018-03-22T21:15:48.945Z,10.70
2018-03-22T21:18:16.799Z,12.40
2018-03-22T21:20:44.970Z,10.93
2018-03-22T21:23:15.940Z,12.10
2018-03-22T21:25:44.090Z,15.57
2018-03-22T21:28:12.179Z,15.50
2018-03-22T21:30:40.190Z,13.93
2018-03-22T21:33:08.866Z,13.93
2018-03-22T21:35:37.315Z,9.63
2018-03-22T21:38:05.083Z,13.30
2018-03-22T21:40:32.985Z,11.53
2018-03-22T21:43:00.841Z,10.17
2018-03-22T21:45:28.625Z,11.57
2018-03-22T21:47:56.487Z,11.73
2018-03-22T21:50:24.137Z,12.67
2018-03-22T21:52:52.230Z,10.70
2018-03-22T21:55:20.711Z,11.93
2018-03-22T21:57:48.467Z,12.27
2018-03-22T22:00:16.247Z,12.27
2018-03-22T22:02:43.959Z,11.47
2018-03-22T22:05:11.627Z,19.53
2018-03-22T22:10:14.725Z,10.50
2018-03-22T22:12:42.399Z,12.50
2018-03-22T22:15:10.865Z,11.80
2018-03-22T22:17:38.529Z,16.60
2018-03-22T22:20:06.195Z,10.03
2018-03-22T22:22:33.863Z,11.80
2018-03-22T22:25:01.513Z,14.00
2018-03-22T22:27:29.348Z,10.53
2018-03-22T22:29:57.816Z,10.43
2018-03-22T22:32:25.477Z,10.77
2018-03-22T22:34:53.130Z,10.97
2018-03-22T22:37:20.798Z,10.43
2018-03-22T22:39:48.525Z,13.23
2018-03-22T22:42:16.184Z,10.13
2018-03-22T22:44:45.171Z,19.50
2018-03-22T22:47:13.636Z,13.30
2018-03-22T22:49:42.206Z,15.23
2018-03-22T22:52:09.942Z,14.83
2018-03-22T22:54:37.732Z,19.30
2018-03-22T22:57:05.520Z,18.20
2018-03-22T22:59:34.332Z,14.10
2018-03-22T23:02:01.966Z,12.70
2018-03-22T23:07:09.460Z,14.30
2018-03-22T23:09:37.122Z,22.00
2018-03-22T23:12:04.895Z,22.63
2018-03-22T23:14:32.656Z,13.40
2018-03-22T23:17:00.324Z,12.17
2018-03-22T23:19:27.974Z,13.80
2018-03-22T23:21:55.867Z,18.23
2018-03-22T23:24:23.539Z,16.37
2018-03-22T23:26:51.216Z,17.30
2018-03-22T23:29:18.889Z,15.93
2018-03-22T23:31:46.535Z,21.23
2018-03-22T23:34:14.217Z,17.07
2018-03-22T23:36:41.843Z,14.30
2018-03-22T23:39:10.296Z,22.30
2018-03-22T23:41:39.673Z,15.47
2018-03-22T23:44:07.425Z,17.20
2018-03-22T23:46:35.153Z,17.77
2018-03-22T23:49:02.856Z,18.33
2018-03-22T23:51:30.679Z,14.00
2018-03-22T23:53:59.115Z,14.67
2018-03-22T23:56:26.798Z,17.63
2018-03-22T23:58:54.535Z,17.07
